Terminal Aerodrome Forecast
Issued by NWS

Home | Current Version | Previous Version | Text Only | Print | Product List | Glossary On
Versions: 1 2 3 4 5 6 7 8 9 10 11 12 13 14 15 16 17 18 19 20 21 22 23 24 25 26 27 28 29 30 31 32
000
FTUS45 KGJT 282341
TAFASE
TAF
KASE 282341Z 2900/2924 35007KT P6SM VCSH BKN045 BKN110
     FM290300 02005KT P6SM VCSH BKN030
     FM290700 09004KT P6SM VCSH OVC025
     FM291200 10004KT P6SM VCSH BKN040
     FM291600 00000KT P6SM VCSH BKN030
     FM292000 36006KT P6SM BKN035=

USA.gov is the U.S. government's official web portal to all federal, state and local government web resources and services.